Time;durP1;ratioP1;P1;durP2;ratioP2;P2;SDS_P1;SDS_P2;PMS_P1;PMS_P2;Temp;Humidity;BMP_temperature;BMP_pressure;BME280_temperature;BME280_humidity;BME280_pressure;Samples;Min_cycle;Max_cycle;Signal;HPM_P1;HPM_P2
2024/01/06 00:04:50;;;;;;;37.97;30.83;;;;;;;4.98;100.00;99956.56;10408108;28;20073;-78
2024/01/06 00:09:51;;;;;;;39.05;30.52;;;;;;;5.03;100.00;99954.25;10404458;28;20076;-79
2024/01/06 00:14:51;;;;;;;51.28;35.53;;;;;;;5.06;100.00;99979.44;10457228;28;20040;-78
2024/01/06 00:19:55;;;;;;;58.38;36.15;;;;;;;5.06;100.00;99972.59;10442477;28;20124;-79
2024/01/06 00:24:55;;;;;;;56.38;36.33;;;;;;;5.07;100.00;99974.38;10442419;28;20041;-79
2024/01/06 00:29:56;;;;;;;56.33;38.63;;;;;;;5.01;100.00;99974.03;10458217;28;20033;-78
2024/01/06 00:34:56;;;;;;;57.05;39.42;;;;;;;4.91;100.00;99976.91;10440555;28;20045;-79
2024/01/06 00:39:57;;;;;;;66.82;41.63;;;;;;;4.92;100.00;99986.47;10444019;28;20157;-78
2024/01/06 00:44:57;;;;;;;62.47;42.47;;;;;;;5.01;100.00;99992.19;10444637;28;20065;-79
2024/01/06 00:50:00;;;;;;;61.95;41.53;;;;;;;4.99;100.00;99994.66;10444331;28;20045;-78
2024/01/06 00:55:01;;;;;;;65.88;42.50;;;;;;;5.02;100.00;99993.06;10431306;28;20048;-78
2024/01/06 01:00:03;;;;;;;66.32;46.17;;;;;;;5.02;100.00;99993.97;10403658;28;20045;-79
2024/01/06 01:05:03;;;;;;;;;;;;;;;5.04;100.00;99997.53;10413215;28;20398;-78
2024/01/06 01:10:05;;;;;;;72.47;49.95;;;;;;;5.02;100.00;99990.47;10404279;28;19925;-79
2024/01/06 01:15:06;;;;;;;68.85;45.40;;;;;;;4.96;100.00;99994.50;10445956;28;20120;-79
2024/01/06 01:20:07;;;;;;;65.35;45.75;;;;;;;5.00;100.00;100003.38;10421987;28;20389;-78
2024/01/06 01:25:08;;;;;;;87.43;44.45;;;;;;;5.04;100.00;100019.97;10447558;28;20037;-79
2024/01/06 01:30:11;;;;;;;77.30;51.03;;;;;;;5.05;100.00;100021.75;10458154;28;20033;-79
2024/01/06 01:35:12;;;;;;;71.40;47.92;;;;;;;5.06;100.00;100029.66;10418516;28;20034;-79
2024/01/06 01:40:12;;;;;;;76.30;50.20;;;;;;;5.00;100.00;100030.19;10458162;28;20455;-80
2024/01/06 01:45:13;;;;;;;76.55;45.95;;;;;;;4.96;100.00;100043.78;10413206;28;20481;-79
2024/01/06 01:50:14;;;;;;;78.13;46.80;;;;;;;4.96;100.00;100056.75;10474797;28;20044;-79
2024/01/06 01:55:14;;;;;;;72.47;43.08;;;;;;;4.95;100.00;100054.94;10422971;28;20049;-79
2024/01/06 02:00:15;;;;;;;65.53;42.47;;;;;;;4.94;100.00;100052.28;10399652;28;20062;-79
2024/01/06 02:05:16;;;;;;;63.50;39.78;;;;;;;4.89;100.00;100058.91;10401495;28;20481;-79
2024/01/06 02:10:17;;;;;;;63.22;41.30;;;;;;;4.85;100.00;100061.31;10400883;28;20128;-78
2024/01/06 02:15:18;;;;;;;57.65;37.45;;;;;;;4.84;100.00;100071.59;10432679;28;20036;-80
2024/01/06 02:20:19;;;;;;;60.03;37.55;;;;;;;4.79;100.00;100075.63;10418969;28;20044;-78
2024/01/06 02:25:20;;;;;;;50.72;38.28;;;;;;;4.76;100.00;100085.81;10417014;28;20091;-79
2024/01/06 02:30:20;;;;;;;46.30;31.33;;;;;;;4.72;100.00;100086.44;10421795;28;20676;-78
2024/01/06 02:35:21;;;;;;;49.13;33.65;;;;;;;4.70;100.00;100094.13;10443445;28;20102;-78
2024/01/06 02:40:21;;;;;;;50.88;31.30;;;;;;;4.65;100.00;100098.16;10429317;28;20426;-79
2024/01/06 02:45:22;;;;;;;43.00;29.63;;;;;;;4.61;100.00;100099.66;10440845;28;20055;-79
2024/01/06 02:50:22;;;;;;;39.85;27.98;;;;;;;4.69;100.00;100113.09;10440112;28;20068;-79
2024/01/06 02:55:23;;;;;;;43.30;26.98;;;;;;;4.66;100.00;100108.59;10444895;28;20144;-79
2024/01/06 03:00:24;;;;;;;39.42;27.73;;;;;;;4.61;100.00;100107.44;10439607;28;20127;-79
2024/01/06 03:05:25;;;;;;;36.60;26.90;;;;;;;4.48;100.00;100097.13;10430281;28;20037;-79
2024/01/06 03:10:26;;;;;;;43.38;25.00;;;;;;;4.42;100.00;100095.09;10458362;28;20124;-79
2024/01/06 03:15:26;;;;;;;36.40;23.35;;;;;;;4.36;100.00;100105.97;10468293;28;20059;-79
2024/01/06 03:20:27;;;;;;;35.72;23.60;;;;;;;4.29;100.00;100118.47;10439478;28;20047;-79
2024/01/06 03:25:27;;;;;;;39.28;22.88;;;;;;;4.25;100.00;100122.56;10440733;28;20094;-80
2024/01/06 03:30:28;;;;;;;34.30;20.27;;;;;;;4.19;100.00;100127.34;10421001;28;20111;-80
2024/01/06 03:35:28;;;;;;;33.97;19.27;;;;;;;4.18;100.00;100126.47;10413410;28;20156;-82
2024/01/06 03:40:29;;;;;;;31.27;19.75;;;;;;;4.16;100.00;100130.69;10400699;28;20052;-78
2024/01/06 03:45:29;;;;;;;31.63;21.83;;;;;;;4.17;100.00;100135.06;10385318;28;20038;-78
2024/01/06 03:50:30;;;;;;;28.83;21.42;;;;;;;4.20;100.00;100144.69;10405631;28;20140;-81
2024/01/06 03:55:30;;;;;;;31.50;19.58;;;;;;;4.20;100.00;100143.00;10410088;28;20567;-79
2024/01/06 04:00:31;;;;;;;25.48;17.13;;;;;;;4.28;100.00;100147.78;10427564;28;20076;-78
2024/01/06 04:05:31;;;;;;;24.73;18.27;;;;;;;4.29;100.00;100145.25;10436818;28;20044;-78
2024/01/06 04:10:32;;;;;;;22.92;18.52;;;;;;;4.20;100.00;100144.69;10459677;28;20124;-78
2024/01/06 04:15:32;;;;;;;22.35;15.52;;;;;;;4.14;100.00;100145.22;10434718;28;20124;-79
2024/01/06 04:20:33;;;;;;;28.45;14.90;;;;;;;4.04;100.00;100135.97;10406651;28;20056;-78
2024/01/06 04:25:33;;;;;;;20.05;15.77;;;;;;;3.94;100.00;100142.28;10420451;28;20069;-78
2024/01/06 04:30:34;;;;;;;22.30;12.82;;;;;;;3.74;100.00;100145.31;10452329;28;20207;-78
2024/01/06 04:35:34;;;;;;;21.08;14.18;;;;;;;3.68;100.00;100138.03;10423910;28;20029;-78
2024/01/06 04:40:35;;;;;;;20.50;13.13;;;;;;;3.71;100.00;100145.13;10467199;28;20139;-77
2024/01/06 04:45:37;;;;;;;14.48;11.70;;;;;;;3.69;100.00;100141.53;10451224;28;20133;-78
2024/01/06 04:50:37;;;;;;;17.52;9.73;;;;;;;3.62;100.00;100143.75;10444142;28;20094;-78
2024/01/06 04:55:38;;;;;;;17.10;12.02;;;;;;;3.59;100.00;100145.22;10444896;28;20556;-78
2024/01/06 05:00:38;;;;;;;21.27;12.40;;;;;;;3.49;100.00;100142.03;10402870;28;20121;-78
2024/01/06 05:05:39;;;;;;;15.15;10.07;;;;;;;3.48;100.00;100160.06;10405333;28;20116;-79
2024/01/06 05:10:39;;;;;;;14.77;8.60;;;;;;;3.46;100.00;100170.31;10402915;28;20045;-79
2024/01/06 05:15:40;;;;;;;12.63;10.32;;;;;;;3.45;100.00;100176.28;10455510;28;20059;-78
2024/01/06 05:20:43;;;;;;;18.30;12.25;;;;;;;3.50;100.00;100190.41;10470476;28;20048;-78
2024/01/06 05:25:44;;;;;;;17.00;10.63;;;;;;;3.46;100.00;100191.00;10461784;28;20406;-79
2024/01/06 05:30:44;;;;;;;16.00;10.18;;;;;;;3.42;100.00;100199.34;10442873;28;20060;-78
2024/01/06 05:35:45;;;;;;;18.35;12.75;;;;;;;3.41;100.00;100209.63;10452376;28;20025;-78
2024/01/06 05:40:45;;;;;;;18.40;12.07;;;;;;;3.44;100.00;100210.69;10387542;28;20128;-78
2024/01/06 05:45:46;;;;;;;18.50;10.85;;;;;;;3.36;100.00;100217.97;10446843;28;20131;-77
2024/01/06 05:50:47;;;;;;;19.65;12.38;;;;;;;3.34;100.00;100227.31;10419676;28;20033;-77
2024/01/06 05:55:47;;;;;;;20.52;12.48;;;;;;;3.26;100.00;100246.63;10412499;28;20384;-81
2024/01/06 06:00:48;;;;;;;13.02;8.48;;;;;;;3.18;100.00;100240.03;10415691;28;21008;-80
2024/01/06 06:05:49;;;;;;;20.77;10.98;;;;;;;3.12;100.00;100249.97;10414723;28;20041;-83
2024/01/06 06:11:01;;;;;;;17.42;12.27;;;;;;;3.05;100.00;100261.56;10400965;28;20037;-82
2024/01/06 06:16:02;;;;;;;14.70;10.75;;;;;;;3.05;100.00;100275.41;10463542;28;20124;-81
2024/01/06 06:21:03;;;;;;;18.70;11.93;;;;;;;3.01;100.00;100291.50;10440528;28;20519;-82
2024/01/06 06:26:07;;;;;;;16.52;10.95;;;;;;;3.03;100.00;100289.00;10440072;28;20366;-81
2024/01/06 06:31:08;;;;;;;16.77;10.30;;;;;;;2.98;100.00;100290.38;10440055;28;20120;-81
2024/01/06 06:36:09;;;;;;;16.85;11.27;;;;;;;2.92;100.00;100299.50;10440092;28;20084;-82
2024/01/06 06:41:09;;;;;;;15.27;9.93;;;;;;;2.96;100.00;100312.63;10419411;28;20124;-82
2024/01/06 06:46:09;;;;;;;15.45;9.60;;;;;;;3.01;100.00;100317.34;10415317;28;20120;-80
2024/01/06 06:51:10;;;;;;;15.00;9.02;;;;;;;2.94;100.00;100321.19;10414660;28;20528;-81
2024/01/06 06:56:11;;;;;;;13.68;8.32;;;;;;;2.96;100.00;100328.16;10398869;28;20128;-80
2024/01/06 07:01:16;;;;;;;16.60;8.13;;;;;;;3.01;100.00;100332.88;10417631;28;20124;-81
2024/01/06 07:06:17;;;;;;;13.88;8.27;;;;;;;3.06;100.00;100344.41;10438985;28;20049;-80
2024/01/06 07:11:18;;;;;;;13.85;8.85;;;;;;;3.05;100.00;100355.56;10403591;28;20068;-81
2024/01/06 07:16:19;;;;;;;15.38;9.35;;;;;;;3.02;100.00;100355.34;10418514;28;20087;-81
2024/01/06 07:21:19;;;;;;;18.98;11.70;;;;;;;2.98;100.00;100365.34;10440538;28;20124;-80
2024/01/06 07:26:20;;;;;;;23.70;12.52;;;;;;;2.93;100.00;100376.25;10442737;28;20501;-81
2024/01/06 07:31:20;;;;;;;19.52;12.48;;;;;;;2.96;100.00;100388.53;10404236;28;20037;-81
2024/01/06 07:36:22;;;;;;;15.00;10.65;;;;;;;3.05;100.00;100396.00;10406013;28;20033;-82
2024/01/06 07:41:22;;;;;;;16.20;11.18;;;;;;;2.98;100.00;100399.88;10406333;28;20525;-81
2024/01/06 07:46:23;;;;;;;15.23;9.38;;;;;;;3.03;100.00;100395.91;10417696;28;20048;-81
2024/01/06 07:51:25;;;;;;;17.77;11.02;;;;;;;3.03;100.00;100407.94;10421855;28;20049;-82
2024/01/06 07:56:25;;;;;;;17.67;10.50;;;;;;;3.03;100.00;100426.03;10405985;28;20551;-82
2024/01/06 08:01:25;;;;;;;18.33;11.30;;;;;;;2.98;100.00;100425.72;10425378;28;20068;-82
2024/01/06 08:06:26;;;;;;;18.25;11.45;;;;;;;3.00;100.00;100429.31;10473087;28;20041;-81
2024/01/06 08:11:27;;;;;;;14.88;10.90;;;;;;;2.98;100.00;100445.50;10461538;28;20275;-81
2024/01/06 08:16:27;;;;;;;18.88;11.10;;;;;;;2.89;100.00;100444.03;10441293;28;20045;-81
2024/01/06 08:21:28;;;;;;;18.83;11.63;;;;;;;2.83;100.00;100453.94;10432436;28;20129;-81
2024/01/06 08:26:28;;;;;;;19.13;11.68;;;;;;;2.81;100.00;100464.97;10435553;28;20512;-83
2024/01/06 08:31:29;;;;;;;28.30;19.35;;;;;;;2.76;100.00;100482.72;10444466;28;20071;-84
2024/01/06 08:36:29;;;;;;;22.25;15.25;;;;;;;2.74;100.00;100492.97;10435216;28;20070;-85
2024/01/06 08:41:30;;;;;;;20.33;12.88;;;;;;;2.73;100.00;100498.91;10438871;28;20125;-81
2024/01/06 08:46:31;;;;;;;18.13;12.10;;;;;;;2.77;100.00;100510.38;10401370;28;20496;-81
2024/01/06 08:51:31;;;;;;;18.42;10.27;;;;;;;2.70;100.00;100516.78;10392993;28;20061;-81
2024/01/06 08:56:33;;;;;;;18.05;12.02;;;;;;;2.61;100.00;100523.84;10442786;28;20034;-80
2024/01/06 09:01:35;;;;;;;14.82;10.50;;;;;;;2.59;100.00;100530.59;10413638;28;20037;-81
2024/01/06 09:06:36;;;;;;;16.15;12.20;;;;;;;2.59;100.00;100549.56;10427930;28;20041;-80
2024/01/06 09:11:37;;;;;;;21.77;12.63;;;;;;;2.56;100.00;100566.53;10437903;28;20404;-80
2024/01/06 09:16:37;;;;;;;21.10;13.15;;;;;;;2.50;100.00;100585.06;10431437;28;20040;-80
2024/01/06 09:21:37;;;;;;;23.10;15.13;;;;;;;2.45;100.00;100588.97;10444888;28;20148;-81
2024/01/06 09:26:38;;;;;;;18.30;12.25;;;;;;;2.44;100.00;100590.66;10442642;28;20467;-80
2024/01/06 09:31:39;;;;;;;23.23;13.10;;;;;;;2.45;100.00;100612.22;10442897;28;20120;-81
2024/01/06 09:36:40;;;;;;;21.50;14.10;;;;;;;2.54;100.00;100618.09;10444961;28;20120;-80
2024/01/06 09:41:41;;;;;;;29.15;13.07;;;;;;;2.58;100.00;100620.13;10443711;28;20033;-80
2024/01/06 09:46:43;;;;;;;20.05;14.15;;;;;;;2.54;100.00;100628.41;10442545;28;20037;-81
2024/01/06 09:51:44;;;;;;;22.95;11.43;;;;;;;2.48;100.00;100633.13;10458504;28;20194;-79
2024/01/06 09:56:44;;;;;;;18.55;11.45;;;;;;;2.52;100.00;100629.09;10440824;28;20163;-79
2024/01/06 10:01:45;;;;;;;18.73;12.07;;;;;;;2.47;100.00;100629.66;10441769;28;20037;-80
2024/01/06 10:06:46;;;;;;;23.13;13.15;;;;;;;2.56;100.00;100634.59;10441663;28;20033;-80
2024/01/06 10:11:46;;;;;;;18.30;12.25;;;;;;;2.75;100.00;100642.06;10441443;28;20396;-79
2024/01/06 10:16:49;;;;;;;19.67;14.82;;;;;;;2.77;100.00;100630.16;10436122;28;20140;-81
2024/01/06 10:21:49;;;;;;;16.80;10.90;;;;;;;2.79;100.00;100636.34;10404153;28;20099;-82
2024/01/06 10:26:50;;;;;;;20.90;12.88;;;;;;;2.77;100.00;100642.19;10470616;28;20094;-82
2024/01/06 10:31:51;;;;;;;25.20;12.88;;;;;;;2.71;100.00;100641.72;10457373;28;20049;-81
2024/01/06 10:36:51;;;;;;;24.63;13.15;;;;;;;2.57;100.00;100654.50;10471378;28;20120;-80
2024/01/06 10:41:52;;;;;;;23.02;14.10;;;;;;;2.54;100.00;100659.41;10456217;28;20453;-81
2024/01/06 10:46:53;;;;;;;19.60;12.10;;;;;;;2.57;100.00;100667.41;10422853;28;20204;-78
2024/01/06 10:51:53;;;;;;;20.08;12.77;;;;;;;2.57;100.00;100659.66;10397298;28;20116;-78
2024/01/06 10:56:53;;;;;;;17.65;12.80;;;;;;;2.55;100.00;100665.50;10438797;28;20053;-79
2024/01/06 11:01:55;;;;;;;19.83;12.82;;;;;;;2.55;100.00;100661.22;10446843;28;20045;-79
2024/01/06 11:06:57;;;;;;;22.80;12.68;;;;;;;2.51;100.00;100664.34;10422024;28;20505;-79
2024/01/06 11:11:57;;;;;;;19.50;12.85;;;;;;;2.54;100.00;100669.75;10455567;28;20119;-79
2024/01/06 11:16:58;;;;;;;20.85;13.73;;;;;;;2.52;100.00;100668.75;10434291;28;20124;-79
2024/01/06 11:22:18;;;;;;;17.83;12.50;;;;;;;2.58;100.00;100670.91;10448073;28;20488;-79
2024/01/06 11:27:28;;;;;;;25.63;15.05;;;;;;;2.61;100.00;100672.03;10445834;28;20560;-79
2024/01/06 11:32:42;;;;;;;20.67;12.48;;;;;;;2.64;100.00;100668.78;10441515;28;20559;-80
2024/01/06 11:37:43;;;;;;;18.38;14.27;;;;;;;2.66;100.00;100680.16;10445110;28;20120;-79
2024/01/06 11:42:43;;;;;;;22.45;16.27;;;;;;;2.71;100.00;100675.31;10416157;28;20044;-79
2024/01/06 11:47:48;;;;;;;24.23;15.23;;;;;;;2.61;100.00;100676.31;10418896;28;20128;-80
2024/01/06 11:52:48;;;;;;;26.13;13.95;;;;;;;2.65;100.00;100688.69;10445356;28;20115;-79
2024/01/06 11:57:50;;;;;;;18.73;13.40;;;;;;;2.61;100.00;100687.53;10448867;28;20131;-79
2024/01/06 12:02:56;;;;;;;24.83;14.57;;;;;;;2.61;100.00;100678.91;10432994;28;20072;-79
2024/01/06 12:07:58;;;;;;;18.65;13.32;;;;;;;2.61;100.00;100686.66;10439183;28;20050;-78
2024/01/06 12:12:59;;;;;;;;;;;;;;;2.63;100.00;100672.16;10435508;28;20547;-78
2024/01/06 12:18:03;;;;;;;16.20;13.60;;;;;;;2.60;100.00;100670.22;10463691;28;19917;-78
2024/01/06 12:23:05;;;;;;;22.55;12.98;;;;;;;2.58;100.00;100676.06;10479281;28;20041;-78
2024/01/06 12:28:06;;;;;;;23.27;12.40;;;;;;;2.51;100.00;100681.56;10457043;28;20473;-79
2024/01/06 12:33:06;;;;;;;24.75;17.95;;;;;;;2.45;100.00;100681.97;10432790;28;20125;-80
2024/01/06 12:38:08;;;;;;;25.70;17.17;;;;;;;2.27;100.00;100682.34;10404099;28;20121;-80
2024/01/06 12:43:09;;;;;;;22.33;15.88;;;;;;;2.25;100.00;100686.50;10420745;28;20051;-79
2024/01/06 12:48:09;;;;;;;22.33;15.32;;;;;;;2.23;100.00;100693.22;10464286;28;20037;-79
2024/01/06 12:53:12;;;;;;;23.40;15.00;;;;;;;2.37;100.00;100690.81;10410806;28;20113;-80
2024/01/06 12:58:12;;;;;;;18.45;13.25;;;;;;;2.43;100.00;100696.44;10414897;28;20033;-80
2024/01/06 13:03:14;;;;;;;17.10;11.70;;;;;;;2.46;100.00;100707.03;10452020;28;20115;-79
2024/01/06 13:08:15;;;;;;;20.90;11.80;;;;;;;2.39;100.00;100699.56;10406085;28;20045;-79
2024/01/06 13:13:15;;;;;;;22.02;13.52;;;;;;;2.35;100.00;100701.91;10430919;28;20061;-78
2024/01/06 13:18:17;;;;;;;18.35;11.00;;;;;;;2.40;100.00;100693.63;10426209;28;20128;-78
2024/01/06 13:23:17;;;;;;;20.10;13.07;;;;;;;2.43;100.00;100706.78;10402329;28;20549;-78
2024/01/06 13:28:18;;;;;;;15.18;9.48;;;;;;;2.35;100.00;100709.66;10402473;28;20041;-78
2024/01/06 13:33:18;;;;;;;17.83;12.13;;;;;;;2.40;100.00;100714.28;10400796;28;20042;-80
2024/01/06 13:38:19;;;;;;;13.80;10.25;;;;;;;2.28;100.00;100717.72;10403490;28;20073;-78
2024/01/06 13:43:19;;;;;;;23.65;12.35;;;;;;;2.29;100.00;100727.28;10471463;28;20115;-79
2024/01/06 13:48:20;;;;;;;22.25;13.45;;;;;;;2.25;100.00;100734.66;10431331;28;20120;-79
2024/01/06 13:53:20;;;;;;;19.23;13.93;;;;;;;2.38;100.00;100732.28;10419471;28;20033;-80
2024/01/06 13:58:21;;;;;;;21.30;15.70;;;;;;;2.39;100.00;100733.16;10457740;28;20124;-80
2024/01/06 14:03:22;;;;;;;21.02;13.80;;;;;;;2.32;100.00;100743.00;10439394;28;20157;-79
2024/01/06 14:08:24;;;;;;;19.10;12.95;;;;;;;2.29;100.00;100753.09;10437026;28;20091;-79
2024/01/06 14:13:26;;;;;;;20.30;13.30;;;;;;;2.25;100.00;100763.09;10448586;28;20084;-80
2024/01/06 14:18:27;;;;;;;17.73;12.27;;;;;;;2.22;100.00;100770.59;10462664;28;20190;-80
2024/01/06 14:23:29;;;;;;;19.77;14.02;;;;;;;2.08;100.00;100785.88;10441533;28;20056;-79
2024/01/06 14:28:30;;;;;;;19.90;13.23;;;;;;;2.06;100.00;100787.44;10441276;28;20048;-80
2024/01/06 14:33:31;;;;;;;18.15;11.50;;;;;;;1.99;100.00;100793.75;10439297;28;20080;-80
2024/01/06 14:38:31;;;;;;;18.70;12.48;;;;;;;1.94;100.00;100799.34;10439175;28;20054;-81
2024/01/06 14:43:32;;;;;;;19.05;13.48;;;;;;;1.94;100.00;100813.13;10441668;28;20492;-80
2024/01/06 14:48:33;;;;;;;17.98;11.70;;;;;;;1.98;100.00;100822.94;10453645;28;20036;-80
2024/01/06 14:53:34;;;;;;;19.25;13.55;;;;;;;1.95;100.00;100824.38;10432033;28;20061;-80
2024/01/06 14:58:35;;;;;;;25.27;14.95;;;;;;;1.93;100.00;100829.41;10408361;28;20490;-82
2024/01/06 15:03:35;;;;;;;16.95;12.88;;;;;;;1.92;100.00;100852.53;10402236;28;20132;-80
2024/01/06 15:08:36;;;;;;;18.45;13.48;;;;;;;1.83;100.00;100850.06;10397691;28;20048;-81
2024/01/06 15:13:37;;;;;;;25.40;13.35;;;;;;;1.82;100.00;100851.78;10452177;28;20052;-82
2024/01/06 15:18:37;;;;;;;22.83;14.77;;;;;;;1.72;100.00;100868.16;10441489;28;22174;-82
2024/01/06 15:23:38;;;;;;;21.60;15.63;;;;;;;1.73;100.00;100871.66;10410972;28;20129;-80
2024/01/06 15:28:38;;;;;;;25.85;14.40;;;;;;;1.72;100.00;100881.06;10405447;28;20110;-80
2024/01/06 15:33:42;;;;;;;20.23;14.70;;;;;;;1.64;100.00;100882.09;10439955;28;20488;-79
2024/01/06 15:38:42;;;;;;;24.80;16.85;;;;;;;1.64;100.00;100887.25;10449733;28;20049;-80
2024/01/06 15:43:43;;;;;;;18.98;10.85;;;;;;;1.59;100.00;100899.78;10404395;28;20482;-80
2024/01/06 15:48:44;;;;;;;23.93;15.50;;;;;;;1.69;100.00;100914.34;10445722;28;20041;-81
2024/01/06 15:53:44;;;;;;;22.75;15.70;;;;;;;1.65;100.00;100913.97;10480031;28;20045;-78
2024/01/06 15:58:45;;;;;;;29.63;15.82;;;;;;;1.63;100.00;100925.84;10444314;28;20036;-78
2024/01/06 16:03:45;;;;;;;22.00;18.02;;;;;;;1.58;100.00;100928.03;10445794;28;20560;-79
2024/01/06 16:08:46;;;;;;;27.67;16.27;;;;;;;1.61;100.00;100925.69;10445015;28;20041;-78
2024/01/06 16:13:46;;;;;;;27.43;17.43;;;;;;;1.62;100.00;100927.50;10443698;28;20166;-77
2024/01/06 16:18:49;;;;;;;26.83;17.55;;;;;;;1.64;100.00;100927.66;10448495;28;20076;-78
2024/01/06 16:23:53;;;;;;;60.72;44.47;;;;;;;1.61;100.00;100934.34;10441110;28;20048;-78
2024/01/06 16:28:53;;;;;;;30.92;20.48;;;;;;;1.59;100.00;100940.16;10442055;28;20064;-77
2024/01/06 16:33:54;;;;;;;30.70;19.17;;;;;;;1.56;100.00;100951.13;10420353;28;20061;-76
2024/01/06 16:38:54;;;;;;;25.65;18.52;;;;;;;1.53;100.00;100958.59;10457403;28;20124;-76
2024/01/06 16:43:55;;;;;;;32.05;20.88;;;;;;;1.51;100.00;100961.81;10450172;28;20484;-77
2024/01/06 16:49:01;;;;;;;28.83;19.13;;;;;;;1.52;100.00;100966.19;10430839;28;20041;-78
2024/01/06 16:54:02;;;;;;;29.67;18.88;;;;;;;1.53;100.00;100970.59;10449302;28;20033;-77
2024/01/06 16:59:02;;;;;;;26.30;17.92;;;;;;;1.57;100.00;100968.41;10453842;28;20039;-76
2024/01/06 17:04:03;;;;;;;28.27;18.55;;;;;;;1.49;100.00;100961.69;10451968;28;20084;-81
2024/01/06 17:09:04;;;;;;;27.73;18.73;;;;;;;1.45;100.00;100970.81;10441754;28;20119;-77
2024/01/06 17:14:04;;;;;;;31.92;20.42;;;;;;;1.44;100.00;100968.13;10479715;28;20116;-77
2024/01/06 17:19:05;;;;;;;27.23;19.33;;;;;;;1.43;100.00;100971.50;10443355;28;20124;-77
2024/01/06 17:24:05;;;;;;;26.23;18.73;;;;;;;1.42;100.00;100982.56;10460344;28;20392;-77
2024/01/06 17:29:06;;;;;;;27.83;17.38;;;;;;;1.41;100.00;100979.06;10454372;28;20046;-77
2024/01/06 17:34:08;;;;;;;33.63;19.50;;;;;;;1.37;100.00;100989.91;10402005;28;20513;-77
2024/01/06 17:39:09;;;;;;;31.50;22.10;;;;;;;1.37;100.00;100995.06;10401765;28;20125;-77
2024/01/06 17:44:10;;;;;;;33.53;22.05;;;;;;;1.36;100.00;100993.25;10399640;28;20393;-77
2024/01/06 17:49:10;;;;;;;33.90;19.73;;;;;;;1.33;100.00;101007.56;10405819;28;20161;-76
2024/01/06 17:54:11;;;;;;;27.50;18.93;;;;;;;1.28;100.00;101005.50;10439753;28;20125;-77
2024/01/06 17:59:12;;;;;;;27.23;21.80;;;;;;;1.25;100.00;101010.38;10438398;28;20041;-76
2024/01/06 18:04:12;;;;;;;40.15;21.63;;;;;;;1.23;100.00;101024.81;10456198;28;20120;-77
2024/01/06 18:09:14;;;;;;;28.60;19.20;;;;;;;1.25;100.00;101023.28;10451892;28;20493;-77
2024/01/06 18:14:15;;;;;;;29.80;21.92;;;;;;;1.20;100.00;101029.72;10432753;28;20098;-77
2024/01/06 18:19:15;;;;;;;20.67;14.65;;;;;;;1.17;100.00;101038.06;10435787;28;20459;-76
2024/01/06 18:24:16;;;;;;;38.97;23.30;;;;;;;1.12;100.00;101043.59;10419369;28;20048;-77
2024/01/06 18:29:18;;;;;;;42.03;26.43;;;;;;;1.07;100.00;101042.28;10453593;28;20109;-76
2024/01/06 18:34:19;;;;;;;39.95;24.52;;;;;;;1.01;100.00;101045.22;10445738;28;20045;-77
2024/01/06 18:39:19;;;;;;;32.13;21.50;;;;;;;1.00;100.00;101051.13;10440344;28;20488;-77
2024/01/06 18:44:20;;;;;;;34.33;22.20;;;;;;;0.98;100.00;101052.66;10440980;28;20066;-76
2024/01/06 18:49:20;;;;;;;39.97;25.27;;;;;;;0.98;100.00;101069.06;10439286;28;20043;-76
2024/01/06 18:54:21;;;;;;;35.07;23.17;;;;;;;1.02;100.00;101068.56;10440104;28;20120;-76
2024/01/06 18:59:21;;;;;;;39.40;24.20;;;;;;;1.02;100.00;101070.22;10440216;28;20072;-76
2024/01/06 19:04:22;;;;;;;30.70;22.00;;;;;;;0.99;100.00;101075.09;10458897;28;20047;-77
2024/01/06 19:09:22;;;;;;;38.90;22.73;;;;;;;0.94;100.00;101071.22;10456911;28;20041;-78
2024/01/06 19:14:23;;;;;;;34.67;23.07;;;;;;;0.97;100.00;101082.72;10426640;28;20053;-77
2024/01/06 19:19:23;;;;;;;42.15;23.10;;;;;;;0.92;100.00;101077.91;10405005;28;20128;-77
2024/01/06 19:24:24;;;;;;;40.83;25.23;;;;;;;0.90;100.00;101088.09;10407381;28;20128;-76
2024/01/06 19:29:25;;;;;;;33.63;22.57;;;;;;;0.88;100.00;101099.94;10406864;28;20076;-77
2024/01/06 19:34:26;;;;;;;34.78;24.17;;;;;;;0.89;100.00;101106.91;10411680;28;20037;-76
2024/01/06 19:39:28;;;;;;;33.77;24.90;;;;;;;0.85;100.00;101103.13;10448125;28;20041;-77
2024/01/06 19:44:29;;;;;;;37.08;25.73;;;;;;;0.80;100.00;101109.53;10446868;28;20041;-76
2024/01/06 19:49:29;;;;;;;39.60;26.07;;;;;;;0.76;100.00;101115.16;10445453;28;20032;-76
2024/01/06 19:54:32;;;;;;;28.30;20.97;;;;;;;0.68;100.00;101123.88;10446654;28;20179;-76
2024/01/06 19:59:32;;;;;;;43.30;26.33;;;;;;;0.64;100.00;101127.84;10405609;28;20072;-76
2024/01/06 20:04:33;;;;;;;29.70;22.47;;;;;;;0.65;100.00;101127.09;10446666;28;20556;-76
2024/01/06 20:09:34;;;;;;;43.73;24.33;;;;;;;0.63;100.00;101128.63;10447920;28;20039;-76
2024/01/06 20:14:35;;;;;;;43.72;26.83;;;;;;;0.64;100.00;101135.59;10461184;28;20187;-76
2024/01/06 20:19:38;;;;;;;37.10;26.67;;;;;;;0.70;100.00;101137.78;10445198;28;20373;-77
2024/01/06 20:24:39;;;;;;;37.17;23.80;;;;;;;0.73;100.00;101143.22;10429012;28;20118;-77
2024/01/06 20:29:39;;;;;;;35.30;25.43;;;;;;;0.73;100.00;101135.50;10425270;28;20187;-76
2024/01/06 20:34:40;;;;;;;29.63;23.07;;;;;;;0.72;100.00;101138.84;10399619;28;20505;-76
2024/01/06 20:39:40;;;;;;;35.33;23.10;;;;;;;0.72;100.00;101131.13;10444114;28;20120;-76
2024/01/06 20:44:41;;;;;;;40.83;24.13;;;;;;;0.68;100.00;101135.09;10444141;28;20043;-77
2024/01/06 20:49:41;;;;;;;43.33;24.83;;;;;;;0.70;100.00;101137.78;10469600;28;20087;-77
2024/01/06 20:54:42;;;;;;;35.30;27.47;;;;;;;0.68;100.00;101140.25;10417867;28;20047;-77
2024/01/06 20:59:44;;;;;;;28.07;21.53;;;;;;;0.68;100.00;101150.56;10421447;28;20094;-77
2024/01/06 21:04:45;;;;;;;34.50;23.00;;;;;;;0.66;100.00;101151.16;10445585;28;20051;-77
2024/01/06 21:09:45;;;;;;;30.50;22.63;;;;;;;0.64;100.00;101150.13;10434804;28;20079;-77
2024/01/06 21:14:46;;;;;;;28.88;21.10;;;;;;;0.65;100.00;101149.34;10401437;28;20580;-77
2024/01/06 21:19:46;;;;;;;25.33;16.67;;;;;;;0.60;100.00;101150.59;10467672;28;20175;-76
2024/01/06 21:24:47;;;;;;;25.90;19.37;;;;;;;0.52;100.00;101150.78;10428369;28;20124;-76
2024/01/06 21:29:47;;;;;;;34.13;20.47;;;;;;;0.49;100.00;101155.66;10416966;28;20477;-77
2024/01/06 21:34:48;;;;;;;30.05;20.38;;;;;;;0.45;100.00;101162.97;10440100;28;20043;-76
2024/01/06 21:39:48;;;;;;;33.40;21.70;;;;;;;0.39;100.00;101168.44;10400703;28;20143;-76
2024/01/06 21:44:49;;;;;;;37.13;21.73;;;;;;;0.33;100.00;101167.88;10462430;28;20119;-76
2024/01/06 21:49:49;;;;;;;34.30;21.40;;;;;;;0.26;100.00;101169.00;10435786;28;20076;-75
2024/01/06 21:54:50;;;;;;;31.50;18.07;;;;;;;0.23;100.00;101171.28;10431589;28;20055;-75
2024/01/06 21:59:50;;;;;;;31.50;21.30;;;;;;;0.18;100.00;101167.38;10439305;28;20041;-76
2024/01/06 22:04:51;;;;;;;28.70;22.43;;;;;;;0.16;100.00;101176.59;10420871;28;20538;-79
2024/01/06 22:09:51;;;;;;;29.70;21.17;;;;;;;0.18;100.00;101191.41;10446904;28;20049;-75
2024/01/06 22:14:54;;;;;;;33.93;20.17;;;;;;;0.15;100.00;101193.69;10439019;28;20484;-75
2024/01/06 22:19:55;;;;;;;38.15;24.83;;;;;;;0.11;100.00;101197.69;10426931;28;20404;-75
2024/01/06 22:24:55;;;;;;;34.27;24.00;;;;;;;0.03;100.00;101198.63;10433097;28;20132;-75
2024/01/06 22:29:56;;;;;;;31.57;23.30;;;;;;;-0.08;100.00;101200.16;10430664;28;20044;-75
2024/01/06 22:34:56;;;;;;;26.83;22.77;;;;;;;-0.15;100.00;101213.19;10437812;28;20128;-75